sensor_id;sensor_type;location;lat;lon;timestamp;P1;durP1;ratioP1;P2;durP2;ratioP2
38399;SDS011;24180;42.676;23.320;2024-01-25T00:00:16;27.85;;;15.30;;
38399;SDS011;24180;42.676;23.320;2024-01-25T00:02:42;24.50;;;14.82;;
38399;SDS011;24180;42.676;23.320;2024-01-25T00:05:07;21.02;;;11.32;;
38399;SDS011;24180;42.676;23.320;2024-01-25T00:07:33;26.08;;;12.68;;
38399;SDS011;24180;42.676;23.320;2024-01-25T00:09:59;26.33;;;14.07;;
38399;SDS011;24180;42.676;23.320;2024-01-25T00:12:24;26.98;;;14.82;;
38399;SDS011;24180;42.676;23.320;2024-01-25T00:14:50;22.63;;;13.85;;
38399;SDS011;24180;42.676;23.320;2024-01-25T00:19:42;15.45;;;10.15;;
38399;SDS011;24180;42.676;23.320;2024-01-25T00:22:08;23.63;;;12.18;;
38399;SDS011;24180;42.676;23.320;2024-01-25T00:24:33;12.43;;;7.85;;
38399;SDS011;24180;42.676;23.320;2024-01-25T00:26:59;19.15;;;10.43;;
38399;SDS011;24180;42.676;23.320;2024-01-25T00:29:24;19.08;;;9.85;;
38399;SDS011;24180;42.676;23.320;2024-01-25T00:31:49;41.35;;;19.20;;
38399;SDS011;24180;42.676;23.320;2024-01-25T00:34:15;43.80;;;20.15;;
38399;SDS011;24180;42.676;23.320;2024-01-25T00:36:41;35.22;;;18.88;;
38399;SDS011;24180;42.676;23.320;2024-01-25T00:39:07;47.30;;;20.90;;
38399;SDS011;24180;42.676;23.320;2024-01-25T00:41:33;42.35;;;20.33;;
38399;SDS011;24180;42.676;23.320;2024-01-25T00:44:00;54.95;;;27.05;;
38399;SDS011;24180;42.676;23.320;2024-01-25T00:46:25;54.00;;;28.00;;
38399;SDS011;24180;42.676;23.320;2024-01-25T00:48:51;58.00;;;29.85;;
38399;SDS011;24180;42.676;23.320;2024-01-25T00:51:20;48.17;;;27.13;;
38399;SDS011;24180;42.676;23.320;2024-01-25T00:53:47;46.42;;;23.42;;
38399;SDS011;24180;42.676;23.320;2024-01-25T00:56:12;34.78;;;17.20;;
38399;SDS011;24180;42.676;23.320;2024-01-25T00:58:38;26.92;;;15.43;;
38399;SDS011;24180;42.676;23.320;2024-01-25T01:01:04;25.65;;;14.27;;
38399;SDS011;24180;42.676;23.320;2024-01-25T01:03:30;24.35;;;13.30;;
38399;SDS011;24180;42.676;23.320;2024-01-25T01:05:55;27.83;;;13.75;;
38399;SDS011;24180;42.676;23.320;2024-01-25T01:10:48;21.08;;;11.07;;
38399;SDS011;24180;42.676;23.320;2024-01-25T01:13:13;16.75;;;10.35;;
38399;SDS011;24180;42.676;23.320;2024-01-25T01:15:39;25.15;;;13.40;;
38399;SDS011;24180;42.676;23.320;2024-01-25T01:18:04;22.70;;;12.88;;
38399;SDS011;24180;42.676;23.320;2024-01-25T01:20:32;21.15;;;12.05;;
38399;SDS011;24180;42.676;23.320;2024-01-25T01:22:58;17.77;;;11.25;;
38399;SDS011;24180;42.676;23.320;2024-01-25T01:25:23;15.88;;;10.20;;
38399;SDS011;24180;42.676;23.320;2024-01-25T01:27:49;22.55;;;10.10;;
38399;SDS011;24180;42.676;23.320;2024-01-25T01:30:14;14.75;;;9.75;;
38399;SDS011;24180;42.676;23.320;2024-01-25T01:32:40;16.83;;;11.07;;
38399;SDS011;24180;42.676;23.320;2024-01-25T01:35:05;16.08;;;8.63;;
38399;SDS011;24180;42.676;23.320;2024-01-25T01:37:31;12.18;;;7.57;;
38399;SDS011;24180;42.676;23.320;2024-01-25T01:39:56;12.60;;;7.13;;
38399;SDS011;24180;42.676;23.320;2024-01-25T01:44:50;10.90;;;7.00;;
38399;SDS011;24180;42.676;23.320;2024-01-25T01:47:17;14.27;;;8.98;;
38399;SDS011;24180;42.676;23.320;2024-01-25T01:49:42;12.70;;;7.97;;
38399;SDS011;24180;42.676;23.320;2024-01-25T01:52:08;16.73;;;8.43;;
38399;SDS011;24180;42.676;23.320;2024-01-25T01:54:34;13.55;;;7.90;;
38399;SDS011;24180;42.676;23.320;2024-01-25T01:57:01;11.82;;;8.32;;
38399;SDS011;24180;42.676;23.320;2024-01-25T02:01:54;14.43;;;8.13;;
38399;SDS011;24180;42.676;23.320;2024-01-25T02:04:19;13.43;;;8.73;;
38399;SDS011;24180;42.676;23.320;2024-01-25T02:06:45;13.80;;;8.52;;
38399;SDS011;24180;42.676;23.320;2024-01-25T02:09:11;15.00;;;8.70;;
38399;SDS011;24180;42.676;23.320;2024-01-25T02:11:38;16.85;;;9.35;;
38399;SDS011;24180;42.676;23.320;2024-01-25T02:14:03;15.15;;;9.20;;
38399;SDS011;24180;42.676;23.320;2024-01-25T02:16:29;10.93;;;6.57;;
38399;SDS011;24180;42.676;23.320;2024-01-25T02:18:54;10.38;;;6.28;;
38399;SDS011;24180;42.676;23.320;2024-01-25T02:21:22;15.02;;;6.80;;
38399;SDS011;24180;42.676;23.320;2024-01-25T02:23:47;43.45;;;18.08;;
38399;SDS011;24180;42.676;23.320;2024-01-25T02:26:13;19.00;;;9.25;;
38399;SDS011;24180;42.676;23.320;2024-01-25T02:28:38;12.63;;;7.45;;
38399;SDS011;24180;42.676;23.320;2024-01-25T02:31:04;14.55;;;8.88;;
38399;SDS011;24180;42.676;23.320;2024-01-25T02:33:29;16.15;;;9.48;;
38399;SDS011;24180;42.676;23.320;2024-01-25T02:35:55;11.73;;;8.30;;
38399;SDS011;24180;42.676;23.320;2024-01-25T02:38:21;17.67;;;8.70;;
38399;SDS011;24180;42.676;23.320;2024-01-25T02:40:46;24.52;;;11.90;;
38399;SDS011;24180;42.676;23.320;2024-01-25T02:43:12;18.02;;;10.60;;
38399;SDS011;24180;42.676;23.320;2024-01-25T02:45:37;12.32;;;8.80;;
38399;SDS011;24180;42.676;23.320;2024-01-25T02:48:03;8.93;;;6.30;;
38399;SDS011;24180;42.676;23.320;2024-01-25T02:50:29;7.53;;;5.18;;
38399;SDS011;24180;42.676;23.320;2024-01-25T02:52:54;5.82;;;4.30;;
38399;SDS011;24180;42.676;23.320;2024-01-25T02:55:20;3.10;;;2.75;;
38399;SDS011;24180;42.676;23.320;2024-01-25T02:57:45;2.45;;;2.25;;
38399;SDS011;24180;42.676;23.320;2024-01-25T03:00:11;2.08;;;1.98;;
38399;SDS011;24180;42.676;23.320;2024-01-25T03:02:37;2.28;;;1.80;;
38399;SDS011;24180;42.676;23.320;2024-01-25T03:05:03;1.35;;;1.25;;
38399;SDS011;24180;42.676;23.320;2024-01-25T03:07:28;1.30;;;0.52;;
38399;SDS011;24180;42.676;23.320;2024-01-25T03:09:54;0.82;;;0.80;;
38399;SDS011;24180;42.676;23.320;2024-01-25T03:12:19;0.82;;;0.82;;
38399;SDS011;24180;42.676;23.320;2024-01-25T03:14:45;1.08;;;1.08;;
38399;SDS011;24180;42.676;23.320;2024-01-25T03:17:10;1.27;;;0.50;;
38399;SDS011;24180;42.676;23.320;2024-01-25T03:19:37;0.55;;;0.55;;
38399;SDS011;24180;42.676;23.320;2024-01-25T03:22:03;0.65;;;0.65;;
38399;SDS011;24180;42.676;23.320;2024-01-25T03:24:28;0.38;;;0.38;;
38399;SDS011;24180;42.676;23.320;2024-01-25T03:26:54;1.30;;;0.50;;
38399;SDS011;24180;42.676;23.320;2024-01-25T03:29:19;0.30;;;0.30;;
38399;SDS011;24180;42.676;23.320;2024-01-25T03:31:45;0.65;;;0.65;;
38399;SDS011;24180;42.676;23.320;2024-01-25T03:34:10;0.57;;;0.30;;
38399;SDS011;24180;42.676;23.320;2024-01-25T03:36:37;0.50;;;0.50;;
38399;SDS011;24180;42.676;23.320;2024-01-25T03:39:04;0.52;;;0.40;;
38399;SDS011;24180;42.676;23.320;2024-01-25T03:41:30;0.40;;;0.40;;
38399;SDS011;24180;42.676;23.320;2024-01-25T03:43:55;1.15;;;0.75;;
38399;SDS011;24180;42.676;23.320;2024-01-25T03:46:21;0.65;;;0.65;;
38399;SDS011;24180;42.676;23.320;2024-01-25T03:48:46;0.38;;;0.38;;
38399;SDS011;24180;42.676;23.320;2024-01-25T03:51:12;0.50;;;0.50;;
38399;SDS011;24180;42.676;23.320;2024-01-25T03:53:37;0.47;;;0.47;;
38399;SDS011;24180;42.676;23.320;2024-01-25T03:56:03;0.77;;;0.60;;
38399;SDS011;24180;42.676;23.320;2024-01-25T03:58:29;0.20;;;0.20;;
38399;SDS011;24180;42.676;23.320;2024-01-25T04:00:54;0.95;;;0.60;;
38399;SDS011;24180;42.676;23.320;2024-01-25T04:03:20;0.22;;;0.22;;
38399;SDS011;24180;42.676;23.320;2024-01-25T04:05:46;0.50;;;0.50;;
38399;SDS011;24180;42.676;23.320;2024-01-25T04:08:11;0.50;;;0.50;;
38399;SDS011;24180;42.676;23.320;2024-01-25T04:10:37;1.95;;;0.80;;
38399;SDS011;24180;42.676;23.320;2024-01-25T04:13:02;0.40;;;0.40;;
38399;SDS011;24180;42.676;23.320;2024-01-25T04:15:31;0.38;;;0.38;;
38399;SDS011;24180;42.676;23.320;2024-01-25T04:17:57;0.28;;;0.28;;
38399;SDS011;24180;42.676;23.320;2024-01-25T04:20:22;2.20;;;0.82;;
38399;SDS011;24180;42.676;23.320;2024-01-25T04:22:48;0.50;;;0.50;;
38399;SDS011;24180;42.676;23.320;2024-01-25T04:25:13;0.85;;;0.80;;
38399;SDS011;24180;42.676;23.320;2024-01-25T04:27:39;0.80;;;0.80;;
38399;SDS011;24180;42.676;23.320;2024-01-25T04:30:08;0.60;;;0.60;;
38399;SDS011;24180;42.676;23.320;2024-01-25T04:32:34;1.52;;;1.42;;
38399;SDS011;24180;42.676;23.320;2024-01-25T04:34:59;1.77;;;1.67;;
38399;SDS011;24180;42.676;23.320;2024-01-25T04:37:25;1.95;;;1.67;;
38399;SDS011;24180;42.676;23.320;2024-01-25T04:39:50;2.13;;;1.92;;
38399;SDS011;24180;42.676;23.320;2024-01-25T04:42:16;1.52;;;1.42;;
38399;SDS011;24180;42.676;23.320;2024-01-25T04:44:42;1.77;;;1.48;;
38399;SDS011;24180;42.676;23.320;2024-01-25T04:47:08;1.25;;;1.25;;
38399;SDS011;24180;42.676;23.320;2024-01-25T04:51:59;1.30;;;1.13;;
38399;SDS011;24180;42.676;23.320;2024-01-25T04:54:25;3.25;;;1.38;;
38399;SDS011;24180;42.676;23.320;2024-01-25T04:56:51;1.88;;;1.77;;
38399;SDS011;24180;42.676;23.320;2024-01-25T04:59:16;3.25;;;1.15;;
38399;SDS011;24180;42.676;23.320;2024-01-25T05:01:42;1.35;;;1.35;;
38399;SDS011;24180;42.676;23.320;2024-01-25T05:04:07;1.55;;;1.15;;
38399;SDS011;24180;42.676;23.320;2024-01-25T05:06:33;1.65;;;1.55;;
38399;SDS011;24180;42.676;23.320;2024-01-25T05:08:58;2.22;;;1.08;;
38399;SDS011;24180;42.676;23.320;2024-01-25T05:11:24;1.33;;;1.33;;
38399;SDS011;24180;42.676;23.320;2024-01-25T05:13:49;3.50;;;2.17;;
38399;SDS011;24180;42.676;23.320;2024-01-25T05:16:15;0.80;;;0.80;;
38399;SDS011;24180;42.676;23.320;2024-01-25T05:18:40;1.15;;;1.10;;
38399;SDS011;24180;42.676;23.320;2024-01-25T05:21:06;0.85;;;0.85;;
38399;SDS011;24180;42.676;23.320;2024-01-25T05:23:31;14.23;;;1.90;;
38399;SDS011;24180;42.676;23.320;2024-01-25T05:25:57;0.80;;;0.80;;
38399;SDS011;24180;42.676;23.320;2024-01-25T05:28:22;0.82;;;0.82;;
38399;SDS011;24180;42.676;23.320;2024-01-25T05:30:49;2.78;;;1.25;;
38399;SDS011;24180;42.676;23.320;2024-01-25T05:33:15;0.80;;;0.80;;
38399;SDS011;24180;42.676;23.320;2024-01-25T05:35:40;0.73;;;0.65;;
38399;SDS011;24180;42.676;23.320;2024-01-25T05:38:06;1.15;;;1.08;;
38399;SDS011;24180;42.676;23.320;2024-01-25T05:40:31;1.80;;;0.95;;
38399;SDS011;24180;42.676;23.320;2024-01-25T05:42:57;4.22;;;0.60;;
38399;SDS011;24180;42.676;23.320;2024-01-25T05:45:22;2.80;;;0.98;;
38399;SDS011;24180;42.676;23.320;2024-01-25T05:47:49;1.67;;;1.10;;
38399;SDS011;24180;42.676;23.320;2024-01-25T05:50:15;1.13;;;1.13;;
38399;SDS011;24180;42.676;23.320;2024-01-25T05:52:41;1.40;;;1.30;;
38399;SDS011;24180;42.676;23.320;2024-01-25T05:55:06;1.73;;;1.35;;
38399;SDS011;24180;42.676;23.320;2024-01-25T05:57:34;1.27;;;0.77;;
38399;SDS011;24180;42.676;23.320;2024-01-25T06:00:01;1.48;;;1.38;;
38399;SDS011;24180;42.676;23.320;2024-01-25T06:02:26;1.38;;;1.17;;
38399;SDS011;24180;42.676;23.320;2024-01-25T06:04:52;1.08;;;1.08;;
38399;SDS011;24180;42.676;23.320;2024-01-25T06:07:17;1.98;;;1.30;;
38399;SDS011;24180;42.676;23.320;2024-01-25T06:09:43;2.00;;;1.13;;
38399;SDS011;24180;42.676;23.320;2024-01-25T06:12:08;1.65;;;1.55;;
38399;SDS011;24180;42.676;23.320;2024-01-25T06:14:33;2.72;;;1.15;;
38399;SDS011;24180;42.676;23.320;2024-01-25T06:16:59;1.92;;;0.77;;
38399;SDS011;24180;42.676;23.320;2024-01-25T06:19:25;1.05;;;1.05;;
38399;SDS011;24180;42.676;23.320;2024-01-25T06:21:50;2.47;;;1.42;;
38399;SDS011;24180;42.676;23.320;2024-01-25T06:24:16;1.80;;;1.48;;
38399;SDS011;24180;42.676;23.320;2024-01-25T06:26:41;1.30;;;0.85;;
38399;SDS011;24180;42.676;23.320;2024-01-25T06:29:06;0.93;;;0.73;;
38399;SDS011;24180;42.676;23.320;2024-01-25T06:31:32;1.38;;;1.38;;
38399;SDS011;24180;42.676;23.320;2024-01-25T06:33:57;3.70;;;1.48;;
38399;SDS011;24180;42.676;23.320;2024-01-25T06:36:23;2.38;;;1.15;;
38399;SDS011;24180;42.676;23.320;2024-01-25T06:38:48;4.22;;;2.35;;
38399;SDS011;24180;42.676;23.320;2024-01-25T06:41:14;1.92;;;1.83;;
38399;SDS011;24180;42.676;23.320;2024-01-25T06:43:42;2.00;;;1.90;;
38399;SDS011;24180;42.676;23.320;2024-01-25T06:46:08;2.72;;;2.05;;
38399;SDS011;24180;42.676;23.320;2024-01-25T06:48:33;1.70;;;1.60;;
38399;SDS011;24180;42.676;23.320;2024-01-25T06:50:59;1.95;;;1.60;;
38399;SDS011;24180;42.676;23.320;2024-01-25T06:53:26;2.90;;;2.50;;
38399;SDS011;24180;42.676;23.320;2024-01-25T06:55:51;3.42;;;1.77;;
38399;SDS011;24180;42.676;23.320;2024-01-25T06:58:17;2.53;;;2.20;;
38399;SDS011;24180;42.676;23.320;2024-01-25T07:00:43;2.10;;;1.77;;
38399;SDS011;24180;42.676;23.320;2024-01-25T07:03:10;2.15;;;1.60;;
38399;SDS011;24180;42.676;23.320;2024-01-25T07:05:35;1.77;;;1.67;;
38399;SDS011;24180;42.676;23.320;2024-01-25T07:08:01;5.03;;;1.70;;
38399;SDS011;24180;42.676;23.320;2024-01-25T07:10:27;3.78;;;1.63;;
38399;SDS011;24180;42.676;23.320;2024-01-25T07:12:53;1.63;;;1.52;;
38399;SDS011;24180;42.676;23.320;2024-01-25T07:15:19;1.60;;;1.50;;
38399;SDS011;24180;42.676;23.320;2024-01-25T07:17:44;3.63;;;1.77;;
38399;SDS011;24180;42.676;23.320;2024-01-25T07:20:10;1.70;;;1.60;;
38399;SDS011;24180;42.676;23.320;2024-01-25T07:22:36;3.25;;;1.27;;
38399;SDS011;24180;42.676;23.320;2024-01-25T07:25:01;3.10;;;1.65;;
38399;SDS011;24180;42.676;23.320;2024-01-25T07:27:27;3.70;;;1.23;;
38399;SDS011;24180;42.676;23.320;2024-01-25T07:29:52;5.25;;;1.00;;
38399;SDS011;24180;42.676;23.320;2024-01-25T07:32:18;1.38;;;1.00;;
38399;SDS011;24180;42.676;23.320;2024-01-25T07:34:44;1.50;;;1.33;;
38399;SDS011;24180;42.676;23.320;2024-01-25T07:37:10;1.75;;;1.65;;
38399;SDS011;24180;42.676;23.320;2024-01-25T07:39:36;0.93;;;0.93;;
38399;SDS011;24180;42.676;23.320;2024-01-25T07:42:02;1.10;;;1.10;;
38399;SDS011;24180;42.676;23.320;2024-01-25T07:44:27;4.00;;;2.28;;
38399;SDS011;24180;42.676;23.320;2024-01-25T07:46:53;2.42;;;2.10;;
38399;SDS011;24180;42.676;23.320;2024-01-25T07:49:18;3.70;;;1.40;;
38399;SDS011;24180;42.676;23.320;2024-01-25T07:51:44;3.85;;;2.08;;
38399;SDS011;24180;42.676;23.320;2024-01-25T07:54:09;1.02;;;1.02;;
38399;SDS011;24180;42.676;23.320;2024-01-25T07:56:35;1.23;;;1.08;;
38399;SDS011;24180;42.676;23.320;2024-01-25T07:59:00;6.50;;;1.75;;
38399;SDS011;24180;42.676;23.320;2024-01-25T08:01:26;1.88;;;1.20;;
38399;SDS011;24180;42.676;23.320;2024-01-25T08:03:52;1.95;;;1.70;;
38399;SDS011;24180;42.676;23.320;2024-01-25T08:06:17;1.98;;;1.42;;
38399;SDS011;24180;42.676;23.320;2024-01-25T08:08:43;1.52;;;1.30;;
38399;SDS011;24180;42.676;23.320;2024-01-25T08:11:08;3.33;;;1.45;;
38399;SDS011;24180;42.676;23.320;2024-01-25T08:13:34;4.53;;;1.67;;
38399;SDS011;24180;42.676;23.320;2024-01-25T08:16:00;5.55;;;1.60;;
38399;SDS011;24180;42.676;23.320;2024-01-25T08:18:25;1.35;;;1.25;;
38399;SDS011;24180;42.676;23.320;2024-01-25T08:20:54;2.13;;;1.75;;
38399;SDS011;24180;42.676;23.320;2024-01-25T08:23:20;1.45;;;1.35;;
38399;SDS011;24180;42.676;23.320;2024-01-25T08:25:45;2.58;;;1.48;;
38399;SDS011;24180;42.676;23.320;2024-01-25T08:28:11;2.45;;;1.25;;
38399;SDS011;24180;42.676;23.320;2024-01-25T08:30:36;2.95;;;1.27;;
38399;SDS011;24180;42.676;23.320;2024-01-25T08:33:02;6.63;;;1.60;;
38399;SDS011;24180;42.676;23.320;2024-01-25T08:35:28;0.82;;;0.77;;
38399;SDS011;24180;42.676;23.320;2024-01-25T08:37:55;2.03;;;1.55;;
38399;SDS011;24180;42.676;23.320;2024-01-25T08:40:20;3.78;;;1.58;;
38399;SDS011;24180;42.676;23.320;2024-01-25T08:42:46;3.90;;;1.45;;
38399;SDS011;24180;42.676;23.320;2024-01-25T08:45:12;6.40;;;1.65;;
38399;SDS011;24180;42.676;23.320;2024-01-25T08:47:38;2.67;;;1.27;;
38399;SDS011;24180;42.676;23.320;2024-01-25T08:50:04;2.17;;;1.17;;
38399;SDS011;24180;42.676;23.320;2024-01-25T08:52:35;3.35;;;1.75;;
38399;SDS011;24180;42.676;23.320;2024-01-25T08:55:01;2.65;;;1.42;;
38399;SDS011;24180;42.676;23.320;2024-01-25T08:57:26;3.22;;;1.95;;
38399;SDS011;24180;42.676;23.320;2024-01-25T08:59:52;1.65;;;1.55;;
38399;SDS011;24180;42.676;23.320;2024-01-25T09:02:17;4.60;;;2.30;;
38399;SDS011;24180;42.676;23.320;2024-01-25T09:04:44;2.72;;;1.60;;
38399;SDS011;24180;42.676;23.320;2024-01-25T09:07:09;2.70;;;1.83;;
38399;SDS011;24180;42.676;23.320;2024-01-25T09:09:34;1.60;;;1.48;;
38399;SDS011;24180;42.676;23.320;2024-01-25T09:12:00;3.85;;;2.22;;
38399;SDS011;24180;42.676;23.320;2024-01-25T09:14:25;3.33;;;1.90;;
38399;SDS011;24180;42.676;23.320;2024-01-25T09:16:51;2.75;;;1.75;;
38399;SDS011;24180;42.676;23.320;2024-01-25T09:19:16;2.40;;;1.40;;
38399;SDS011;24180;42.676;23.320;2024-01-25T09:21:42;4.72;;;1.92;;
38399;SDS011;24180;42.676;23.320;2024-01-25T09:24:08;1.75;;;1.05;;
38399;SDS011;24180;42.676;23.320;2024-01-25T09:26:33;2.33;;;1.65;;
38399;SDS011;24180;42.676;23.320;2024-01-25T09:28:58;2.53;;;2.03;;
38399;SDS011;24180;42.676;23.320;2024-01-25T09:31:24;4.18;;;2.00;;
38399;SDS011;24180;42.676;23.320;2024-01-25T09:33:50;1.50;;;1.40;;
38399;SDS011;24180;42.676;23.320;2024-01-25T09:36:16;8.15;;;1.90;;
38399;SDS011;24180;42.676;23.320;2024-01-25T09:38:42;5.63;;;2.60;;
38399;SDS011;24180;42.676;23.320;2024-01-25T09:41:07;1.52;;;1.42;;
38399;SDS011;24180;42.676;23.320;2024-01-25T09:43:33;6.38;;;1.52;;
38399;SDS011;24180;42.676;23.320;2024-01-25T09:45:58;4.03;;;1.95;;
38399;SDS011;24180;42.676;23.320;2024-01-25T09:50:51;2.50;;;1.80;;
38399;SDS011;24180;42.676;23.320;2024-01-25T09:53:23;4.32;;;2.25;;
38399;SDS011;24180;42.676;23.320;2024-01-25T09:56:00;3.70;;;2.42;;
38399;SDS011;24180;42.676;23.320;2024-01-25T09:58:44;2.45;;;2.25;;
38399;SDS011;24180;42.676;23.320;2024-01-25T10:01:13;6.13;;;2.95;;
38399;SDS011;24180;42.676;23.320;2024-01-25T10:03:43;6.88;;;2.85;;
38399;SDS011;24180;42.676;23.320;2024-01-25T10:06:10;2.70;;;2.03;;
38399;SDS011;24180;42.676;23.320;2024-01-25T10:08:36;2.58;;;2.30;;
38399;SDS011;24180;42.676;23.320;2024-01-25T10:11:02;4.97;;;3.40;;
38399;SDS011;24180;42.676;23.320;2024-01-25T10:13:27;7.10;;;4.05;;
38399;SDS011;24180;42.676;23.320;2024-01-25T10:15:53;6.88;;;2.83;;
38399;SDS011;24180;42.676;23.320;2024-01-25T10:18:19;9.00;;;2.85;;
38399;SDS011;24180;42.676;23.320;2024-01-25T10:20:45;2.47;;;2.28;;
38399;SDS011;24180;42.676;23.320;2024-01-25T10:23:11;4.97;;;3.30;;
38399;SDS011;24180;42.676;23.320;2024-01-25T10:25:36;3.88;;;3.08;;
38399;SDS011;24180;42.676;23.320;2024-01-25T10:28:05;6.78;;;2.67;;
38399;SDS011;24180;42.676;23.320;2024-01-25T10:30:32;2.50;;;1.80;;
38399;SDS011;24180;42.676;23.320;2024-01-25T10:32:59;4.22;;;2.58;;
38399;SDS011;24180;42.676;23.320;2024-01-25T10:35:25;2.35;;;2.15;;
38399;SDS011;24180;42.676;23.320;2024-01-25T10:37:51;6.47;;;2.17;;
38399;SDS011;24180;42.676;23.320;2024-01-25T10:40:20;2.65;;;2.45;;
38399;SDS011;24180;42.676;23.320;2024-01-25T10:42:47;2.90;;;1.77;;
38399;SDS011;24180;42.676;23.320;2024-01-25T10:45:13;3.67;;;2.58;;
38399;SDS011;24180;42.676;23.320;2024-01-25T10:47:39;3.70;;;1.60;;
38399;SDS011;24180;42.676;23.320;2024-01-25T10:50:11;4.63;;;2.05;;
38399;SDS011;24180;42.676;23.320;2024-01-25T10:52:38;2.50;;;1.60;;
38399;SDS011;24180;42.676;23.320;2024-01-25T10:55:05;2.05;;;1.83;;
38399;SDS011;24180;42.676;23.320;2024-01-25T10:57:43;1.95;;;1.70;;
38399;SDS011;24180;42.676;23.320;2024-01-25T11:00:10;3.60;;;1.75;;
38399;SDS011;24180;42.676;23.320;2024-01-25T11:02:38;1.85;;;1.60;;
38399;SDS011;24180;42.676;23.320;2024-01-25T11:07:43;10.23;;;2.20;;
38399;SDS011;24180;42.676;23.320;2024-01-25T11:10:23;3.03;;;2.05;;
38399;SDS011;24180;42.676;23.320;2024-01-25T11:15:32;1.65;;;1.55;;
38399;SDS011;24180;42.676;23.320;2024-01-25T11:18:00;2.58;;;1.85;;
38399;SDS011;24180;42.676;23.320;2024-01-25T11:20:31;5.65;;;2.30;;
38399;SDS011;24180;42.676;23.320;2024-01-25T11:25:32;4.45;;;1.90;;
38399;SDS011;24180;42.676;23.320;2024-01-25T11:28:00;3.33;;;2.28;;
38399;SDS011;24180;42.676;23.320;2024-01-25T11:30:27;5.10;;;1.88;;
38399;SDS011;24180;42.676;23.320;2024-01-25T11:32:54;3.08;;;1.88;;
38399;SDS011;24180;42.676;23.320;2024-01-25T11:35:21;4.97;;;2.05;;
38399;SDS011;24180;42.676;23.320;2024-01-25T11:37:47;5.25;;;2.20;;
38399;SDS011;24180;42.676;23.320;2024-01-25T11:40:13;4.38;;;2.15;;
38399;SDS011;24180;42.676;23.320;2024-01-25T11:42:41;4.65;;;2.08;;
38399;SDS011;24180;42.676;23.320;2024-01-25T11:45:09;3.55;;;1.30;;
38399;SDS011;24180;42.676;23.320;2024-01-25T11:47:37;4.90;;;1.73;;
38399;SDS011;24180;42.676;23.320;2024-01-25T11:50:04;2.70;;;2.08;;
38399;SDS011;24180;42.676;23.320;2024-01-25T11:52:31;2.65;;;1.67;;
38399;SDS011;24180;42.676;23.320;2024-01-25T11:55:02;2.15;;;1.98;;
38399;SDS011;24180;42.676;23.320;2024-01-25T11:57:30;4.05;;;2.08;;
38399;SDS011;24180;42.676;23.320;2024-01-25T11:59:57;2.40;;;2.05;;
38399;SDS011;24180;42.676;23.320;2024-01-25T12:02:24;2.92;;;2.05;;
38399;SDS011;24180;42.676;23.320;2024-01-25T12:04:50;2.50;;;1.75;;
38399;SDS011;24180;42.676;23.320;2024-01-25T12:07:18;3.95;;;1.85;;
38399;SDS011;24180;42.676;23.320;2024-01-25T12:09:45;2.80;;;1.77;;
38399;SDS011;24180;42.676;23.320;2024-01-25T12:12:10;2.05;;;1.95;;
38399;SDS011;24180;42.676;23.320;2024-01-25T12:14:36;2.22;;;1.40;;
38399;SDS011;24180;42.676;23.320;2024-01-25T12:17:03;10.40;;;1.85;;
38399;SDS011;24180;42.676;23.320;2024-01-25T12:19:29;2.45;;;1.63;;
38399;SDS011;24180;42.676;23.320;2024-01-25T12:21:55;2.83;;;1.60;;
38399;SDS011;24180;42.676;23.320;2024-01-25T12:24:21;3.72;;;1.80;;
38399;SDS011;24180;42.676;23.320;2024-01-25T12:26:46;3.72;;;1.90;;
38399;SDS011;24180;42.676;23.320;2024-01-25T12:29:12;2.05;;;1.38;;
38399;SDS011;24180;42.676;23.320;2024-01-25T12:31:38;1.83;;;1.63;;
38399;SDS011;24180;42.676;23.320;2024-01-25T12:34:03;2.38;;;1.45;;
38399;SDS011;24180;42.676;23.320;2024-01-25T12:36:39;2.80;;;1.13;;
38399;SDS011;24180;42.676;23.320;2024-01-25T12:39:05;3.75;;;1.70;;
38399;SDS011;24180;42.676;23.320;2024-01-25T12:41:31;2.53;;;1.55;;
38399;SDS011;24180;42.676;23.320;2024-01-25T12:43:57;1.48;;;1.38;;
38399;SDS011;24180;42.676;23.320;2024-01-25T12:46:22;3.75;;;2.20;;
38399;SDS011;24180;42.676;23.320;2024-01-25T12:48:48;3.67;;;1.73;;
38399;SDS011;24180;42.676;23.320;2024-01-25T12:51:14;3.33;;;1.80;;
38399;SDS011;24180;42.676;23.320;2024-01-25T12:53:39;2.08;;;1.33;;
38399;SDS011;24180;42.676;23.320;2024-01-25T12:56:05;2.75;;;1.92;;
38399;SDS011;24180;42.676;23.320;2024-01-25T12:58:31;2.33;;;1.30;;
38399;SDS011;24180;42.676;23.320;2024-01-25T13:00:56;3.20;;;1.45;;
38399;SDS011;24180;42.676;23.320;2024-01-25T13:03:22;2.25;;;1.33;;
38399;SDS011;24180;42.676;23.320;2024-01-25T13:05:48;2.20;;;1.23;;
38399;SDS011;24180;42.676;23.320;2024-01-25T13:08:13;3.15;;;1.13;;
38399;SDS011;24180;42.676;23.320;2024-01-25T13:10:38;2.03;;;1.60;;
38399;SDS011;24180;42.676;23.320;2024-01-25T13:13:04;7.03;;;1.80;;
38399;SDS011;24180;42.676;23.320;2024-01-25T13:15:30;3.58;;;1.63;;
38399;SDS011;24180;42.676;23.320;2024-01-25T13:17:56;2.72;;;1.58;;
38399;SDS011;24180;42.676;23.320;2024-01-25T13:20:22;2.08;;;1.90;;
38399;SDS011;24180;42.676;23.320;2024-01-25T13:22:47;2.97;;;1.60;;
38399;SDS011;24180;42.676;23.320;2024-01-25T13:25:13;2.58;;;1.27;;
38399;SDS011;24180;42.676;23.320;2024-01-25T13:27:40;1.95;;;1.25;;
38399;SDS011;24180;42.676;23.320;2024-01-25T13:30:05;4.05;;;1.33;;
38399;SDS011;24180;42.676;23.320;2024-01-25T13:32:31;2.20;;;1.27;;
38399;SDS011;24180;42.676;23.320;2024-01-25T13:34:57;3.30;;;1.70;;
38399;SDS011;24180;42.676;23.320;2024-01-25T13:37:22;2.30;;;1.67;;
38399;SDS011;24180;42.676;23.320;2024-01-25T13:39:48;3.50;;;1.63;;
38399;SDS011;24180;42.676;23.320;2024-01-25T13:42:13;5.00;;;2.60;;
38399;SDS011;24180;42.676;23.320;2024-01-25T13:44:39;7.88;;;2.70;;
38399;SDS011;24180;42.676;23.320;2024-01-25T13:47:04;6.35;;;2.42;;
38399;SDS011;24180;42.676;23.320;2024-01-25T13:49:30;3.80;;;2.22;;
38399;SDS011;24180;42.676;23.320;2024-01-25T13:51:55;2.45;;;1.80;;
38399;SDS011;24180;42.676;23.320;2024-01-25T13:54:21;3.13;;;2.22;;
38399;SDS011;24180;42.676;23.320;2024-01-25T13:56:46;5.70;;;2.92;;
38399;SDS011;24180;42.676;23.320;2024-01-25T13:59:12;6.85;;;1.75;;
38399;SDS011;24180;42.676;23.320;2024-01-25T14:01:37;6.93;;;1.80;;
38399;SDS011;24180;42.676;23.320;2024-01-25T14:04:03;5.00;;;1.98;;
38399;SDS011;24180;42.676;23.320;2024-01-25T14:06:29;2.40;;;1.75;;
38399;SDS011;24180;42.676;23.320;2024-01-25T14:08:54;5.10;;;1.67;;
38399;SDS011;24180;42.676;23.320;2024-01-25T14:11:20;2.35;;;1.45;;
38399;SDS011;24180;42.676;23.320;2024-01-25T14:13:45;3.15;;;1.38;;
38399;SDS011;24180;42.676;23.320;2024-01-25T14:16:11;4.35;;;1.95;;
38399;SDS011;24180;42.676;23.320;2024-01-25T14:18:42;3.85;;;2.05;;
38399;SDS011;24180;42.676;23.320;2024-01-25T14:21:07;4.97;;;1.75;;
38399;SDS011;24180;42.676;23.320;2024-01-25T14:23:33;4.47;;;1.95;;
38399;SDS011;24180;42.676;23.320;2024-01-25T14:25:58;4.90;;;2.05;;
38399;SDS011;24180;42.676;23.320;2024-01-25T14:28:24;2.25;;;1.52;;
38399;SDS011;24180;42.676;23.320;2024-01-25T14:30:49;7.93;;;2.58;;
38399;SDS011;24180;42.676;23.320;2024-01-25T14:33:15;5.00;;;2.05;;
38399;SDS011;24180;42.676;23.320;2024-01-25T14:35:40;3.67;;;1.77;;
38399;SDS011;24180;42.676;23.320;2024-01-25T14:38:06;8.43;;;2.17;;
38399;SDS011;24180;42.676;23.320;2024-01-25T14:40:31;4.63;;;1.30;;
38399;SDS011;24180;42.676;23.320;2024-01-25T14:42:57;2.92;;;1.63;;
38399;SDS011;24180;42.676;23.320;2024-01-25T14:45:23;4.45;;;1.20;;